Time;durP1;ratioP1;P1;durP2;ratioP2;P2;SDS_P1;SDS_P2;PMS_P1;PMS_P2;Temp;Humidity;BMP_temperature;BMP_pressure;BME280_temperature;BME280_humidity;BME280_pressure;Samples;Min_cycle;Max_cycle;Signal;HPM_P1;HPM_P2
2022/07/20 00:01:56;;;;;;;5.13;3.30;;;23.90;60.80;;;;;;4843291;29;20108;-79
2022/07/20 00:04:22;;;;;;;5.22;3.20;;;23.90;60.80;;;;;;4860060;29;20510;-79
2022/07/20 00:06:48;;;;;;;4.78;3.08;;;23.90;60.80;;;;;;4858776;29;20356;-79
2022/07/20 00:11:58;;;;;;;5.22;3.03;;;23.90;60.80;;;;;;4860195;29;20030;-79
2022/07/20 00:14:24;;;;;;;5.55;3.47;;;23.90;60.80;;;;;;4860062;29;20041;-78
2022/07/20 00:16:50;;;;;;;5.40;3.33;;;23.90;60.80;;;;;;4859727;29;20060;-78
2022/07/20 00:19:16;;;;;;;5.90;3.50;;;23.90;60.90;;;;;;4859981;29;20038;-79
2022/07/20 00:21:41;;;;;;;4.90;3.40;;;23.80;60.80;;;;;;4828585;29;20033;-79
2022/07/20 00:24:07;;;;;;;5.25;3.33;;;23.90;60.90;;;;;;4859838;29;20089;-79
2022/07/20 00:26:33;;;;;;;5.55;3.03;;;23.80;60.80;;;;;;4858726;29;20061;-79
2022/07/20 00:28:59;;;;;;;6.30;3.33;;;23.80;60.80;;;;;;4858700;29;20040;-79
2022/07/20 00:31:25;;;;;;;5.53;3.28;;;23.90;61.00;;;;;;4858643;29;20037;-78
2022/07/20 00:33:51;;;;;;;5.50;3.47;;;23.80;60.90;;;;;;4859671;29;20038;-79
2022/07/20 00:36:19;;;;;;;4.80;3.05;;;23.80;61.00;;;;;;4858445;29;20056;-78
2022/07/20 00:38:45;;;;;;;6.50;3.55;;;23.80;61.00;;;;;;4859725;29;20081;-78
2022/07/20 00:41:12;;;;;;;5.18;3.38;;;23.80;60.90;;;;;;4858553;29;20081;-79
2022/07/20 00:43:58;;;;;;;5.97;3.30;;;23.80;60.90;;;;;;4859625;29;20439;-78
2022/07/20 00:46:24;;;;;;;6.07;3.75;;;23.80;60.90;;;;;;4859364;29;20037;-79
2022/07/20 00:48:50;;;;;;;5.25;3.40;;;23.80;60.90;;;;;;4858588;29;20570;-78
2022/07/20 00:51:17;;;;;;;5.47;3.35;;;23.80;61.00;;;;;;4859615;29;20116;-79
2022/07/20 00:53:44;;;;;;;5.75;3.47;;;23.90;61.00;;;;;;4858317;29;20033;-78
2022/07/20 00:56:10;;;;;;;5.82;3.33;;;23.80;60.90;;;;;;4843266;29;20045;-78
2022/07/20 00:58:36;;;;;;;6.70;3.53;;;23.80;60.90;;;;;;4859503;29;20062;-78
2022/07/20 01:01:02;;;;;;;6.28;3.88;;;23.80;60.90;;;;;;4859427;29;20026;-78
2022/07/20 01:03:30;;;;;;;5.80;3.33;;;23.80;60.90;;;;;;4858244;29;20048;-79
2022/07/20 01:05:56;;;;;;;5.22;3.20;;;23.80;60.90;;;;;;4857874;29;20490;-78
2022/07/20 01:08:21;;;;;;;4.43;2.90;;;23.80;60.90;;;;;;4859425;29;20040;-78
2022/07/20 01:10:48;;;;;;;5.30;3.13;;;23.80;61.00;;;;;;4859440;29;20436;-78
2022/07/20 01:13:14;;;;;;;4.38;2.97;;;23.80;61.00;;;;;;4860682;29;20558;-79
2022/07/20 01:15:40;;;;;;;5.57;3.35;;;23.90;61.00;;;;;;4862161;29;20033;-78
2022/07/20 01:18:05;;;;;;;4.40;2.95;;;23.80;61.00;;;;;;4863184;29;20471;-78
2022/07/20 01:20:32;;;;;;;6.57;3.55;;;23.80;61.00;;;;;;4863090;29;20112;-79
2022/07/20 01:22:58;;;;;;;5.80;3.45;;;23.80;61.00;;;;;;4846342;29;20508;-78
2022/07/20 01:25:24;;;;;;;5.82;3.30;;;23.80;61.00;;;;;;4862718;29;20116;-78
2022/07/20 01:27:50;;;;;;;3.85;2.67;;;23.80;61.00;;;;;;4863030;29;20112;-79
2022/07/20 01:30:16;;;;;;;6.10;3.38;;;23.80;60.90;;;;;;4862825;29;20136;-79
2022/07/20 01:32:41;;;;;;;5.93;3.35;;;23.90;60.90;;;;;;4862631;29;20082;-79
2022/07/20 01:35:07;;;;;;;4.30;2.80;;;23.90;60.90;;;;;;4862671;29;20494;-79
2022/07/20 01:37:33;;;;;;;5.65;3.47;;;23.90;60.90;;;;;;4846586;29;20029;-79
2022/07/20 01:39:59;;;;;;;4.93;3.10;;;23.90;60.80;;;;;;4862793;29;20034;-78
2022/07/20 01:42:25;;;;;;;4.63;3.08;;;23.90;60.80;;;;;;4830891;29;20041;-79
2022/07/20 01:44:51;;;;;;;5.18;3.13;;;23.90;60.80;;;;;;4862604;29;20112;-78
2022/07/20 01:47:17;;;;;;;4.70;3.28;;;23.90;60.80;;;;;;4861150;29;20400;-78
2022/07/20 01:49:43;;;;;;;5.47;3.20;;;23.90;60.80;;;;;;4861640;29;20040;-78
2022/07/20 01:52:09;;;;;;;5.13;3.22;;;23.90;60.70;;;;;;4862658;29;20406;-79
2022/07/20 01:54:35;;;;;;;4.35;2.95;;;23.90;60.80;;;;;;4846037;29;20033;-78
2022/07/20 01:57:01;;;;;;;5.32;3.40;;;23.90;60.80;;;;;;4862298;29;20074;-78
2022/07/20 01:59:27;;;;;;;4.53;2.83;;;23.90;60.80;;;;;;4846297;29;20076;-79
2022/07/20 02:01:53;;;;;;;5.25;3.17;;;23.90;60.80;;;;;;4846047;29;20057;-79
2022/07/20 02:04:19;;;;;;;5.20;3.20;;;23.90;60.80;;;;;;4845925;29;20034;-79
2022/07/20 02:06:45;;;;;;;4.60;2.92;;;23.90;60.80;;;;;;4860807;29;20037;-79
2022/07/20 02:09:11;;;;;;;4.30;2.78;;;23.90;60.80;;;;;;4862212;29;20034;-79
2022/07/20 02:11:36;;;;;;;4.47;2.90;;;23.90;60.90;;;;;;4862231;29;20022;-79
2022/07/20 02:14:02;;;;;;;4.63;2.67;;;23.90;60.90;;;;;;4862302;29;20033;-79
2022/07/20 02:16:28;;;;;;;5.15;3.08;;;23.90;60.80;;;;;;4860730;29;20498;-79
2022/07/20 02:18:59;;;;;;;4.82;3.00;;;23.90;61.50;;;;;;4862199;29;20036;-79
2022/07/20 02:21:26;;;;;;;4.47;2.85;;;23.90;61.00;;;;;;4861051;29;20065;-79
2022/07/20 02:23:52;;;;;;;4.47;2.75;;;23.90;60.90;;;;;;4860467;29;20090;-79
2022/07/20 02:26:18;;;;;;;4.05;2.75;;;23.90;61.00;;;;;;4860458;29;20029;-79
2022/07/20 02:28:45;;;;;;;5.43;3.10;;;23.90;61.00;;;;;;4861867;29;20483;-79
2022/07/20 02:31:11;;;;;;;4.90;3.10;;;23.90;61.00;;;;;;4861869;29;20045;-79
2022/07/20 02:33:36;;;;;;;4.50;3.08;;;23.90;61.00;;;;;;4861598;29;20029;-79
2022/07/20 02:36:03;;;;;;;4.35;2.72;;;23.90;61.00;;;;;;4860362;29;20487;-79
2022/07/20 02:38:29;;;;;;;4.93;3.25;;;23.90;61.00;;;;;;4860696;29;20037;-79
2022/07/20 02:40:55;;;;;;;5.60;3.47;;;23.90;61.00;;;;;;4861763;29;20165;-79
2022/07/20 02:43:21;;;;;;;4.90;2.90;;;23.90;61.00;;;;;;4861527;29;20124;-79
2022/07/20 02:45:47;;;;;;;4.68;2.78;;;23.90;61.00;;;;;;4860175;29;20033;-79
2022/07/20 02:48:13;;;;;;;4.68;3.08;;;23.90;61.00;;;;;;4861651;29;20036;-78
2022/07/20 02:50:41;;;;;;;4.47;3.20;;;23.90;61.00;;;;;;4861612;29;20043;-79
2022/07/20 02:53:12;;;;;;;5.13;3.10;;;23.90;61.00;;;;;;4861284;29;20036;-79
2022/07/20 02:55:39;;;;;;;4.25;2.95;;;23.90;61.00;;;;;;4860170;29;20062;-79
2022/07/20 02:58:05;;;;;;;5.78;3.30;;;23.90;61.00;;;;;;4861406;29;20036;-79
2022/07/20 03:00:34;;;;;;;4.32;2.97;;;23.90;61.00;;;;;;4845099;29;20120;-79
2022/07/20 03:03:00;;;;;;;4.75;2.97;;;23.90;61.00;;;;;;4861298;29;20486;-79
2022/07/20 03:05:26;;;;;;;4.90;2.95;;;23.90;61.00;;;;;;4861072;29;20631;-79
2022/07/20 03:07:52;;;;;;;5.32;3.08;;;23.90;61.00;;;;;;4861192;29;20030;-79
2022/07/20 03:10:18;;;;;;;5.30;3.20;;;23.90;61.00;;;;;;4861178;29;20030;-79
2022/07/20 03:12:44;;;;;;;3.80;2.67;;;23.90;61.00;;;;;;4859808;29;20037;-79
2022/07/20 03:15:11;;;;;;;4.40;2.88;;;23.90;61.00;;;;;;4860841;29;20398;-79
2022/07/20 03:17:49;;;;;;;5.10;3.03;;;23.90;61.00;;;;;;4861260;29;20438;-79
2022/07/20 03:20:26;;;;;;;4.95;2.90;;;23.90;61.00;;;;;;4860993;29;20037;-79
2022/07/20 03:22:53;;;;;;;5.00;2.88;;;23.90;61.00;;;;;;4860994;29;20376;-79
2022/07/20 03:25:19;;;;;;;4.30;2.75;;;23.90;60.90;;;;;;4859562;29;20105;-79
2022/07/20 03:27:45;;;;;;;4.07;2.35;;;23.90;60.80;;;;;;4859655;29;20113;-79
2022/07/20 03:30:12;;;;;;;4.60;2.90;;;23.90;60.80;;;;;;4859922;29;20120;-79
2022/07/20 03:32:38;;;;;;;4.72;2.88;;;23.90;60.80;;;;;;4860475;29;20465;-79
2022/07/20 03:35:04;;;;;;;4.25;2.72;;;23.90;60.80;;;;;;4843858;29;20037;-79
2022/07/20 03:37:30;;;;;;;4.10;2.63;;;23.90;60.80;;;;;;4860355;29;20029;-79
2022/07/20 03:39:55;;;;;;;4.80;2.72;;;24.00;60.80;;;;;;4860746;29;20052;-79
2022/07/20 03:42:21;;;;;;;4.35;2.65;;;24.00;60.80;;;;;;4860535;29;20040;-78
2022/07/20 03:44:47;;;;;;;4.55;2.90;;;24.00;60.80;;;;;;4859305;29;20037;-79
2022/07/20 03:47:13;;;;;;;4.50;2.72;;;24.00;60.70;;;;;;4860384;29;20266;-78
2022/07/20 03:49:39;;;;;;;4.50;2.65;;;24.00;60.80;;;;;;4859319;29;20394;-79
2022/07/20 03:52:05;;;;;;;4.97;2.88;;;24.00;60.70;;;;;;4860403;29;20033;-79
2022/07/20 03:54:31;;;;;;;5.03;2.78;;;24.00;60.80;;;;;;4859379;29;20380;-79
2022/07/20 03:56:56;;;;;;;5.47;3.17;;;24.00;60.80;;;;;;4843578;29;20124;-78
2022/07/20 03:59:22;;;;;;;5.13;2.97;;;23.90;60.80;;;;;;4859123;29;20030;-79
2022/07/20 04:01:48;;;;;;;5.00;2.88;;;24.00;60.90;;;;;;4860258;29;20034;-79
2022/07/20 04:04:14;;;;;;;4.82;2.90;;;23.90;60.80;;;;;;4860176;29;20119;-78
2022/07/20 04:06:40;;;;;;;5.05;2.90;;;23.90;60.90;;;;;;4860061;29;20109;-78
2022/07/20 04:09:06;;;;;;;4.10;2.90;;;23.90;60.80;;;;;;4860176;29;20042;-78
2022/07/20 04:11:31;;;;;;;4.25;2.80;;;23.90;60.90;;;;;;4860082;29;20487;-79
2022/07/20 04:13:57;;;;;;;5.80;3.28;;;23.90;60.90;;;;;;4860007;29;20491;-78
2022/07/20 04:16:23;;;;;;;4.65;3.03;;;23.90;60.80;;;;;;4858493;29;20116;-78
2022/07/20 04:18:49;;;;;;;4.82;2.80;;;23.90;60.80;;;;;;4860051;29;20074;-79
2022/07/20 04:21:15;;;;;;;5.20;2.95;;;23.90;60.90;;;;;;4858771;29;20089;-78
2022/07/20 04:23:42;;;;;;;4.47;2.80;;;23.90;60.90;;;;;;4859973;29;20030;-78
2022/07/20 04:26:08;;;;;;;3.95;2.55;;;23.90;60.90;;;;;;4859665;29;20057;-78
2022/07/20 04:28:33;;;;;;;4.20;2.67;;;23.90;61.00;;;;;;4859926;29;20076;-78
2022/07/20 04:30:59;;;;;;;4.00;2.50;;;23.90;60.90;;;;;;4858576;29;20062;-78
2022/07/20 04:33:25;;;;;;;5.32;2.80;;;23.90;60.90;;;;;;4872319;23;20049;-78
2022/07/20 04:35:51;;;;;;;4.35;3.03;;;23.90;60.90;;;;;;4842918;29;20594;-79
2022/07/20 04:38:17;;;;;;;4.45;2.97;;;23.90;60.90;;;;;;4841465;29;20034;-79
2022/07/20 04:40:44;;;;;;;5.10;3.00;;;23.90;60.90;;;;;;4855796;29;20034;-79
2022/07/20 04:43:10;;;;;;;4.00;2.50;;;23.90;60.90;;;;;;4840213;29;20121;-79
2022/07/20 04:45:36;;;;;;;5.05;2.95;;;23.90;60.90;;;;;;4841105;29;20049;-79
2022/07/20 04:48:03;;;;;;;4.72;3.03;;;23.90;60.90;;;;;;4841350;29;20026;-79
2022/07/20 04:50:29;;;;;;;3.60;2.63;;;23.90;61.00;;;;;;4840024;29;20034;-79
2022/07/20 04:52:54;;;;;;;4.80;3.08;;;23.90;60.90;;;;;;4870775;29;20038;-79
2022/07/20 04:55:20;;;;;;;4.00;2.60;;;23.90;60.90;;;;;;4839692;29;20530;-79
2022/07/20 04:57:46;;;;;;;3.90;2.60;;;23.90;61.00;;;;;;4840139;29;20041;-79
2022/07/20 05:00:12;;;;;;;4.07;2.55;;;23.90;60.90;;;;;;4825170;29;20038;-79
2022/07/20 05:02:38;;;;;;;4.70;3.00;;;23.90;60.90;;;;;;4855424;29;20034;-78
2022/07/20 05:05:05;;;;;;;4.88;2.90;;;23.90;60.90;;;;;;4841349;29;20041;-79
2022/07/20 05:07:31;;;;;;;4.50;3.00;;;23.90;60.90;;;;;;4870771;29;20073;-78
2022/07/20 05:09:57;;;;;;;5.45;3.10;;;24.00;60.90;;;;;;4841234;29;20059;-79
2022/07/20 05:12:22;;;;;;;4.22;2.65;;;24.00;60.80;;;;;;4839847;29;20065;-78
2022/07/20 05:14:48;;;;;;;4.22;2.80;;;24.00;60.80;;;;;;4840119;29;20030;-78
2022/07/20 05:17:14;;;;;;;4.22;2.60;;;24.00;60.80;;;;;;4840809;29;20095;-79
2022/07/20 05:19:40;;;;;;;5.13;3.00;;;24.00;60.80;;;;;;4824947;29;20133;-78
2022/07/20 05:22:06;;;;;;;4.25;2.72;;;24.00;60.70;;;;;;4840294;29;20132;-78
2022/07/20 05:24:32;;;;;;;5.68;2.67;;;24.00;60.80;;;;;;4824849;29;20158;-78
2022/07/20 05:26:58;;;;;;;4.32;2.80;;;24.00;60.70;;;;;;4839901;29;20124;-79
2022/07/20 05:29:24;;;;;;;4.65;2.90;;;24.00;60.70;;;;;;4840974;29;20034;-78
2022/07/20 05:31:50;;;;;;;4.13;2.80;;;24.00;60.70;;;;;;4841045;29;20471;-79
2022/07/20 05:34:15;;;;;;;4.40;3.08;;;24.00;60.70;;;;;;4839613;29;20117;-78
2022/07/20 05:36:41;;;;;;;3.92;2.65;;;24.00;60.70;;;;;;4840691;29;20038;-79
2022/07/20 05:39:09;;;;;;;5.30;2.90;;;24.00;60.70;;;;;;4840886;29;20113;-79
2022/07/20 05:41:36;;;;;;;4.28;2.60;;;24.00;60.70;;;;;;4841119;29;20428;-78
2022/07/20 05:44:02;;;;;;;4.35;3.00;;;24.00;60.70;;;;;;4840743;29;20042;-79
2022/07/20 05:46:28;;;;;;;4.72;2.97;;;24.00;60.70;;;;;;4824655;29;20045;-79
2022/07/20 05:48:53;;;;;;;4.53;2.83;;;24.00;60.70;;;;;;4841027;29;20086;-79
2022/07/20 05:51:19;;;;;;;4.28;2.67;;;24.00;60.80;;;;;;4839530;29;20038;-79
2022/07/20 05:53:45;;;;;;;4.68;2.78;;;24.00;60.80;;;;;;4839517;29;20077;-79
2022/07/20 05:56:11;;;;;;;4.85;2.92;;;24.00;60.80;;;;;;4824489;29;20141;-79
2022/07/20 05:58:38;;;;;;;4.47;2.78;;;24.00;60.80;;;;;;4841228;29;20037;-80
2022/07/20 06:01:04;;;;;;;4.18;2.60;;;24.00;60.80;;;;;;4858313;29;20483;-79
2022/07/20 06:03:29;;;;;;;3.85;2.60;;;24.00;60.80;;;;;;4844007;29;20041;-79
2022/07/20 06:05:55;;;;;;;5.35;3.00;;;24.00;60.80;;;;;;4843758;29;20041;-79
2022/07/20 06:08:21;;;;;;;3.80;2.42;;;24.00;60.90;;;;;;4843958;29;20041;-79
2022/07/20 06:10:47;;;;;;;4.65;2.63;;;24.00;60.90;;;;;;4843909;29;20395;-80
2022/07/20 06:13:13;;;;;;;4.80;3.08;;;24.00;60.90;;;;;;4827081;29;20038;-79
2022/07/20 06:15:39;;;;;;;3.83;2.50;;;24.00;60.90;;;;;;4843462;29;20034;-79
2022/07/20 06:18:06;;;;;;;3.70;2.70;;;24.00;61.00;;;;;;4842570;29;20559;-78
2022/07/20 06:20:32;;;;;;;4.53;2.45;;;24.00;61.00;;;;;;4827322;29;20038;-80
2022/07/20 06:22:58;;;;;;;4.47;2.63;;;24.00;60.90;;;;;;4842165;29;20038;-80
2022/07/20 06:25:24;;;;;;;3.90;2.63;;;24.00;61.00;;;;;;4827108;29;20049;-80
2022/07/20 06:27:50;;;;;;;4.60;2.90;;;24.00;60.90;;;;;;4842351;29;20125;-80
2022/07/20 06:30:17;;;;;;;4.05;2.63;;;24.00;60.90;;;;;;4842589;29;20073;-79
2022/07/20 06:32:43;;;;;;;5.90;2.83;;;24.00;60.90;;;;;;4842211;29;20040;-79
2022/07/20 06:35:09;;;;;;;4.18;2.78;;;24.00;60.90;;;;;;4841810;29;20036;-78
2022/07/20 06:37:37;;;;;;;4.45;2.85;;;24.00;61.00;;;;;;4826944;29;20064;-80
2022/07/20 06:40:03;;;;;;;4.05;2.50;;;24.00;60.90;;;;;;4827051;29;20125;-79
2022/07/20 06:42:29;;;;;;;3.80;2.58;;;24.00;60.90;;;;;;4826926;29;20098;-79
2022/07/20 06:44:56;;;;;;;4.93;3.15;;;24.10;61.00;;;;;;4841992;29;20475;-79
2022/07/20 06:47:22;;;;;;;3.95;2.70;;;24.10;61.00;;;;;;4843075;29;20037;-79
2022/07/20 06:49:48;;;;;;;3.83;2.70;;;24.10;61.00;;;;;;4826833;29;20030;-79
2022/07/20 06:52:13;;;;;;;4.32;2.88;;;24.00;61.00;;;;;;4843100;29;20042;-79
2022/07/20 06:54:39;;;;;;;4.28;2.63;;;24.10;61.00;;;;;;4857186;29;20034;-79
2022/07/20 06:57:05;;;;;;;4.05;2.72;;;24.10;61.10;;;;;;4826398;29;20033;-79
2022/07/20 06:59:32;;;;;;;4.85;2.80;;;24.10;61.00;;;;;;4826841;29;20038;-79
2022/07/20 07:01:58;;;;;;;5.60;3.17;;;24.10;61.00;;;;;;4841899;29;20034;-79
2022/07/20 07:04:24;;;;;;;4.20;2.90;;;24.10;60.90;;;;;;4843090;29;20033;-79
2022/07/20 07:06:50;;;;;;;4.80;3.20;;;24.10;60.90;;;;;;4811242;29;20089;-79
2022/07/20 07:09:15;;;;;;;3.90;2.67;;;24.20;61.00;;;;;;4841785;29;20125;-80
2022/07/20 07:11:41;;;;;;;3.75;2.67;;;24.20;60.90;;;;;;4840934;29;20036;-78
2022/07/20 07:14:07;;;;;;;4.10;2.90;;;24.20;60.90;;;;;;4842681;29;20121;-79
2022/07/20 07:16:33;;;;;;;5.75;2.70;;;24.20;60.90;;;;;;4842377;29;20034;-78
2022/07/20 07:18:59;;;;;;;4.03;2.70;;;24.20;60.90;;;;;;4826577;29;20030;-78
2022/07/20 07:21:25;;;;;;;3.83;2.65;;;24.20;60.90;;;;;;4841464;29;20498;-78
2022/07/20 07:23:51;;;;;;;4.32;2.80;;;24.20;61.00;;;;;;4842459;29;20518;-78
2022/07/20 07:26:18;;;;;;;5.03;2.95;;;24.20;60.90;;;;;;4842516;29;20098;-78
2022/07/20 07:28:44;;;;;;;5.35;3.15;;;24.20;60.90;;;;;;4842646;29;20033;-78
2022/07/20 07:31:11;;;;;;;4.18;2.75;;;24.20;60.90;;;;;;4841417;29;20082;-78
2022/07/20 07:33:37;;;;;;;4.00;2.65;;;24.20;61.00;;;;;;4842228;29;20094;-78
2022/07/20 07:36:04;;;;;;;4.75;3.00;;;24.20;60.90;;;;;;4840924;29;20056;-78
2022/07/20 07:38:31;;;;;;;3.80;2.58;;;24.20;60.90;;;;;;4826104;29;20086;-79
2022/07/20 07:40:57;;;;;;;4.10;2.83;;;24.20;61.00;;;;;;4841167;29;20026;-78
2022/07/20 07:43:22;;;;;;;4.57;2.75;;;24.20;61.00;;;;;;4840985;29;20541;-79
2022/07/20 07:45:48;;;;;;;3.88;2.80;;;24.20;61.10;;;;;;4841899;29;20112;-78
2022/07/20 07:48:14;;;;;;;4.18;2.70;;;24.20;61.10;;;;;;4842343;29;20380;-78
2022/07/20 07:50:42;;;;;;;4.60;2.85;;;24.20;61.10;;;;;;4826002;29;20045;-78
2022/07/20 07:53:08;;;;;;;3.92;2.80;;;24.20;61.10;;;;;;4841833;29;20080;-77
2022/07/20 07:55:36;;;;;;;4.50;2.85;;;24.20;61.10;;;;;;4841684;29;20029;-77
2022/07/20 07:58:01;;;;;;;5.78;3.13;;;24.20;61.10;;;;;;4825841;29;20507;-78
2022/07/20 08:00:27;;;;;;;3.80;2.60;;;24.20;61.10;;;;;;4842072;29;20068;-79
2022/07/20 08:02:54;;;;;;;4.63;2.80;;;24.20;61.20;;;;;;4841928;29;20137;-78
2022/07/20 08:05:21;;;;;;;4.28;2.88;;;24.20;61.10;;;;;;4841601;29;20037;-78
2022/07/20 08:07:47;;;;;;;4.72;2.88;;;24.20;61.20;;;;;;4841990;29;20112;-78
2022/07/20 08:10:13;;;;;;;3.80;2.40;;;24.30;61.20;;;;;;4842062;29;20030;-78
2022/07/20 08:12:39;;;;;;;4.15;2.55;;;24.20;61.20;;;;;;4840722;29;20042;-79
2022/07/20 08:15:06;;;;;;;3.95;2.40;;;24.30;61.30;;;;;;4840526;29;20044;-78
2022/07/20 08:17:32;;;;;;;4.30;2.58;;;24.30;61.30;;;;;;4842389;29;20081;-78
2022/07/20 08:19:58;;;;;;;4.10;2.90;;;24.30;61.20;;;;;;4841615;29;20491;-78
2022/07/20 08:22:24;;;;;;;3.72;2.60;;;24.30;61.20;;;;;;4841552;29;20030;-78
2022/07/20 08:24:50;;;;;;;4.82;2.95;;;24.30;61.90;;;;;;4841484;29;20109;-78
2022/07/20 08:27:15;;;;;;;5.38;2.90;;;24.30;61.20;;;;;;4842070;29;20033;-79
2022/07/20 08:29:41;;;;;;;4.85;3.00;;;24.20;61.20;;;;;;4842062;29;20034;-79
2022/07/20 08:32:07;;;;;;;4.47;2.72;;;24.30;61.30;;;;;;4840727;29;20053;-78
2022/07/20 08:34:33;;;;;;;4.10;2.70;;;24.30;61.30;;;;;;4842035;29;20041;-79
2022/07/20 08:36:59;;;;;;;3.60;2.58;;;24.30;61.30;;;;;;4842254;29;20034;-79
2022/07/20 08:39:25;;;;;;;4.10;2.65;;;24.30;61.30;;;;;;4843498;29;20034;-78
2022/07/20 08:41:51;;;;;;;4.90;3.10;;;24.30;61.30;;;;;;4841788;29;20038;-79
2022/07/20 08:44:17;;;;;;;3.78;2.58;;;24.30;61.90;;;;;;4844143;29;20034;-77
2022/07/20 08:46:44;;;;;;;4.30;2.60;;;24.30;61.30;;;;;;4844559;29;20156;-77
2022/07/20 08:49:12;;;;;;;3.88;2.60;;;24.30;61.10;;;;;;4826637;29;20038;-79
2022/07/20 08:51:39;;;;;;;4.00;2.30;;;24.40;61.20;;;;;;4842342;29;20065;-78
2022/07/20 08:54:05;;;;;;;3.90;2.70;;;24.40;61.20;;;;;;4857096;29;20037;-78
2022/07/20 08:56:33;;;;;;;4.30;2.67;;;24.40;61.10;;;;;;4826309;29;20541;-79
2022/07/20 08:59:00;;;;;;;3.70;2.50;;;24.40;61.20;;;;;;4841995;29;20089;-79
2022/07/20 09:01:25;;;;;;;4.63;3.00;;;24.40;61.40;;;;;;4841080;29;20503;-79
2022/07/20 09:04:09;;;;;;;3.55;2.47;;;24.40;61.10;;;;;;4841000;29;20041;-78
2022/07/20 09:06:37;;;;;;;4.22;2.60;;;24.40;61.10;;;;;;4840429;29;20034;-78
2022/07/20 09:09:07;;;;;;;3.45;2.53;;;24.40;61.10;;;;;;4843173;29;20500;-79
2022/07/20 09:11:33;;;;;;;3.50;2.30;;;24.40;61.10;;;;;;4827066;29;20137;-78
2022/07/20 09:14:00;;;;;;;3.63;2.60;;;24.40;61.10;;;;;;4825484;29;20060;-79
2022/07/20 09:16:46;;;;;;;5.00;3.00;;;24.40;61.10;;;;;;4841869;29;20045;-79
2022/07/20 09:19:14;;;;;;;4.88;2.90;;;24.40;61.10;;;;;;4841868;29;20314;-79
2022/07/20 09:21:44;;;;;;;5.13;3.03;;;24.40;61.20;;;;;;4824993;29;20054;-79
2022/07/20 09:24:10;;;;;;;;;;;24.40;61.10;;;;;;4840576;29;20026;-78
2022/07/20 09:26:38;;;;;;;4.10;2.80;;;24.40;61.20;;;;;;4840831;29;20293;-78
2022/07/20 09:29:06;;;;;;;3.50;2.50;;;24.40;61.20;;;;;;4825269;29;20033;-79
2022/07/20 09:31:37;;;;;;;3.78;2.47;;;24.40;61.20;;;;;;4824987;29;20038;-79
2022/07/20 09:34:04;;;;;;;3.05;2.13;;;24.40;61.20;;;;;;4841923;29;20109;-78
2022/07/20 09:36:45;;;;;;;3.90;2.55;;;24.40;61.20;;;;;;4872827;29;20041;-79
2022/07/20 09:39:14;;;;;;;3.72;2.65;;;24.40;61.30;;;;;;4843651;29;20034;-78
2022/07/20 09:41:43;;;;;;;3.65;2.67;;;24.40;61.30;;;;;;4844569;29;20041;-79
2022/07/20 09:44:21;;;;;;;4.00;2.83;;;24.40;61.30;;;;;;4828494;29;20034;-78
2022/07/20 09:46:47;;;;;;;4.63;2.58;;;24.40;61.30;;;;;;4843554;29;20058;-79
2022/07/20 09:49:13;;;;;;;3.65;2.42;;;24.40;61.30;;;;;;4828421;29;20045;-79
2022/07/20 09:51:42;;;;;;;3.67;2.38;;;24.40;61.30;;;;;;4828729;29;20042;-79
2022/07/20 09:54:12;;;;;;;3.50;2.40;;;24.40;61.30;;;;;;4845358;29;20054;-79
2022/07/20 09:56:41;;;;;;;3.33;2.28;;;24.40;61.30;;;;;;4844369;29;20121;-80
2022/07/20 09:59:11;;;;;;;3.60;2.38;;;24.40;61.30;;;;;;4846511;29;20030;-79
2022/07/20 10:01:40;;;;;;;3.53;2.40;;;24.40;61.30;;;;;;4846854;29;20398;-78
2022/07/20 10:04:07;;;;;;;;;;;24.40;61.30;;;;;;4830626;29;20309;-79
2022/07/20 10:06:36;;;;;;;3.13;2.30;;;24.40;61.40;;;;;;4829302;29;19912;-78
2022/07/20 10:09:04;;;;;;;3.78;2.47;;;24.40;61.90;;;;;;4845688;29;20038;-81
2022/07/20 10:11:30;;;;;;;3.15;2.45;;;24.40;61.40;;;;;;4830788;29;20042;-79
2022/07/20 10:14:02;;;;;;;3.47;2.17;;;24.40;61.40;;;;;;4844743;29;20033;-79
2022/07/20 10:16:31;;;;;;;3.80;2.55;;;24.40;61.40;;;;;;4844672;29;20124;-79
2022/07/20 10:19:00;;;;;;;4.65;2.50;;;24.40;61.40;;;;;;4844615;29;20077;-79
2022/07/20 10:21:34;;;;;;;4.07;2.40;;;24.40;61.40;;;;;;4829566;29;20097;-79
2022/07/20 10:24:30;;;;;;;4.30;2.90;;;24.40;61.40;;;;;;4829034;29;20078;-79
2022/07/20 10:27:16;;;;;;;4.45;2.47;;;24.40;61.40;;;;;;4845275;29;20106;-79
2022/07/20 10:29:52;;;;;;;4.03;2.30;;;24.40;61.40;;;;;;4844054;29;20094;-80
2022/07/20 10:32:29;;;;;;;4.13;2.45;;;24.50;61.40;;;;;;4844437;29;20033;-80
2022/07/20 10:35:00;;;;;;;3.40;2.30;;;24.50;61.40;;;;;;4859557;23;20058;-77
2022/07/20 10:37:26;;;;;;;3.65;2.50;;;24.50;61.40;;;;;;4853998;29;20030;-78
2022/07/20 10:40:03;;;;;;;3.42;2.20;;;24.50;61.40;;;;;;4839136;29;20038;-77
2022/07/20 10:42:34;;;;;;;2.95;2.00;;;24.50;61.40;;;;;;4824986;29;20030;-78
2022/07/20 10:45:25;;;;;;;3.60;2.58;;;24.50;61.30;;;;;;4824743;29;20042;-77
2022/07/20 10:48:01;;;;;;;4.07;2.72;;;24.50;61.30;;;;;;4826487;29;20061;-78
2022/07/20 10:50:35;;;;;;;4.15;2.67;;;24.50;61.20;;;;;;4824859;29;20034;-78
2022/07/20 10:53:13;;;;;;;3.85;2.60;;;24.50;61.20;;;;;;4824822;29;20412;-78
2022/07/20 10:55:38;;;;;;;3.70;2.38;;;24.50;61.20;;;;;;4824407;29;20042;-78
2022/07/20 10:58:11;;;;;;;3.90;2.40;;;24.50;61.40;;;;;;4824697;29;20118;-78
2022/07/20 11:00:38;;;;;;;4.35;2.70;;;24.50;61.30;;;;;;4824513;29;20404;-77
2022/07/20 11:03:18;;;;;;;3.53;2.60;;;24.50;61.30;;;;;;4824726;29;20141;-77
2022/07/20 11:05:44;;;;;;;;;;;24.50;61.30;;;;;;4823956;29;20037;-78
2022/07/20 11:08:11;;;;;;;3.65;2.45;;;24.50;61.30;;;;;;4824560;29;19920;-78
2022/07/20 11:10:40;;;;;;;3.40;2.35;;;24.50;61.40;;;;;;4823555;29;20042;-78
2022/07/20 11:13:11;;;;;;;3.28;2.20;;;24.50;61.40;;;;;;4838391;29;20502;-78
2022/07/20 11:15:49;;;;;;;3.17;2.20;;;24.50;62.00;;;;;;4824173;29;20469;-77
2022/07/20 11:18:27;;;;;;;3.60;2.50;;;24.50;61.40;;;;;;4824473;29;20034;-77
2022/07/20 11:20:58;;;;;;;4.15;2.80;;;24.50;61.50;;;;;;4823649;29;20133;-77
2022/07/20 11:23:27;;;;;;;3.83;2.40;;;24.50;61.50;;;;;;4824232;29;20030;-78
2022/07/20 11:25:58;;;;;;;5.20;2.83;;;24.50;61.50;;;;;;4824174;29;20110;-77
2022/07/20 11:28:33;;;;;;;4.40;2.80;;;24.50;61.50;;;;;;4838484;29;20069;-77
2022/07/20 11:31:02;;;;;;;5.13;2.30;;;24.50;61.50;;;;;;4808126;29;20067;-77
2022/07/20 11:33:38;;;;;;;3.53;2.33;;;24.50;61.50;;;;;;4822767;29;20034;-78
2022/07/20 11:36:09;;;;;;;4.35;2.60;;;24.50;61.50;;;;;;4823781;29;20092;-78
2022/07/20 11:38:47;;;;;;;3.97;2.60;;;24.50;61.50;;;;;;4824423;29;20036;-78
2022/07/20 11:41:15;;;;;;;4.75;2.72;;;24.50;61.50;;;;;;4822946;29;20034;-77
2022/07/20 11:43:41;;;;;;;4.45;2.40;;;24.50;61.50;;;;;;4822927;29;20062;-78
2022/07/20 11:46:22;;;;;;;3.45;2.40;;;24.50;61.60;;;;;;4823648;29;20073;-78
2022/07/20 11:48:52;;;;;;;3.38;2.00;;;24.50;61.60;;;;;;4824153;29;20035;-78
2022/07/20 11:51:18;;;;;;;4.72;3.15;;;24.50;61.50;;;;;;4824609;29;20103;-78
2022/07/20 11:53:44;;;;;;;4.10;2.38;;;24.50;61.60;;;;;;4822557;29;20492;-77
2022/07/20 11:56:13;;;;;;;5.20;2.85;;;24.50;61.60;;;;;;4823163;29;20027;-78
2022/07/20 11:58:40;;;;;;;3.97;2.58;;;24.50;61.60;;;;;;4822714;29;20034;-77
2022/07/20 12:01:09;;;;;;;4.07;2.60;;;24.50;61.60;;;;;;4824013;29;20033;-77
2022/07/20 12:03:37;;;;;;;3.88;2.97;;;24.50;61.60;;;;;;4823571;29;20034;-77
2022/07/20 12:06:06;;;;;;;3.22;2.22;;;24.50;61.60;;;;;;4823449;29;20446;-77
2022/07/20 12:08:32;;;;;;;3.30;2.40;;;24.50;61.60;;;;;;4822725;29;20034;-77
2022/07/20 12:10:58;;;;;;;4.38;2.50;;;24.50;61.60;;;;;;4807316;29;20488;-77
2022/07/20 12:13:26;;;;;;;2.85;2.20;;;24.50;61.60;;;;;;4837335;29;20057;-77
2022/07/20 12:16:01;;;;;;;4.25;2.60;;;24.50;61.60;;;;;;4823285;29;20492;-77
2022/07/20 12:18:42;;;;;;;3.50;2.35;;;24.50;61.60;;;;;;4823558;29;20441;-78
2022/07/20 12:21:10;;;;;;;4.00;2.83;;;24.50;61.50;;;;;;4823497;29;20082;-77
2022/07/20 12:23:37;;;;;;;3.90;2.78;;;24.50;61.50;;;;;;4822264;29;20065;-76
2022/07/20 12:26:32;;;;;;;3.35;2.33;;;24.60;61.50;;;;;;4823128;29;20038;-77
2022/07/20 12:29:18;;;;;;;3.55;2.47;;;24.60;61.50;;;;;;4823381;29;20031;-77
2022/07/20 12:31:44;;;;;;;3.95;2.80;;;24.60;61.50;;;;;;4822282;29;20034;-77
2022/07/20 12:34:14;;;;;;;3.92;2.72;;;24.60;61.50;;;;;;4822072;29;20457;-77
2022/07/20 12:36:45;;;;;;;4.03;2.50;;;24.60;61.50;;;;;;4822079;29;20065;-77
2022/07/20 12:39:14;;;;;;;3.97;2.40;;;24.60;61.50;;;;;;4822386;29;20095;-77
2022/07/20 12:41:41;;;;;;;4.20;3.00;;;24.60;61.50;;;;;;4823253;29;20031;-77
2022/07/20 12:44:27;;;;;;;4.03;2.70;;;24.60;61.40;;;;;;4806645;29;20480;-77
2022/07/20 12:46:55;;;;;;;3.67;2.50;;;24.60;61.50;;;;;;4806739;29;20050;-77
2022/07/20 12:49:28;;;;;;;4.07;2.42;;;24.60;61.50;;;;;;4821958;29;20090;-77
2022/07/20 12:51:56;;;;;;;4.38;2.65;;;24.60;61.50;;;;;;4807104;29;20058;-77
2022/07/20 12:54:22;;;;;;;3.70;2.42;;;24.60;61.50;;;;;;4821722;29;20063;-76